Time;durP1;ratioP1;P1;durP2;ratioP2;P2;SDS_P1;SDS_P2;PMS_P1;PMS_P2;Temp;Humidity;BMP_temperature;BMP_pressure;BME280_temperature;BME280_humidity;BME280_pressure;Samples;Min_cycle;Max_cycle;Signal;HPM_P1;HPM_P2
2022/02/02 00:00:54;;;;;;;;;;;3.30;88.10;;;1.68;99.18;95566.09;4928832;28;19922;-64
2022/02/02 00:03:23;;;;;;;;;;;3.30;87.90;;;1.65;99.37;95566.41;4947145;28;20068;-64
2022/02/02 00:06:03;;;;;;;;;;;3.20;88.10;;;1.62;99.78;95574.47;4949840;28;19919;-64
2022/02/02 00:08:40;;;;;;;;;;;3.10;88.50;;;1.61;99.36;95580.63;4947386;28;20018;-64
2022/02/02 00:18:51;;;;;;;;;;;3.20;88.70;;;1.62;100.00;95571.06;4946842;28;19919;-64
2022/02/02 00:21:24;;;;;;;;;;;3.20;88.70;;;1.62;100.00;95558.94;4951092;28;20004;-64
2022/02/02 00:23:54;;;;;;;;;;;3.30;88.50;;;1.64;100.00;95569.16;4964218;28;19958;-64
2022/02/02 00:26:26;;;;;;;;;;;3.40;88.50;;;1.67;100.00;95574.03;4944620;28;19948;-64
2022/02/02 00:28:56;;;;;;;;;;;3.40;88.40;;;1.69;100.00;95578.09;4943383;28;20426;-64
2022/02/02 00:31:28;;;;;;;;;;;3.50;88.40;;;1.72;100.00;95577.81;4951445;28;19922;-64
2022/02/02 00:33:59;;;;;;;;;;;3.50;88.40;;;1.74;100.00;95601.81;4949337;28;20282;-64
2022/02/02 00:36:33;;;;;;;;;;;3.50;88.50;;;1.77;100.00;95605.88;4949095;28;19937;-64
2022/02/02 00:38:58;;;;;;;;;;;3.60;88.50;;;1.81;100.00;95602.88;4933796;28;19918;-64
2022/02/02 00:41:24;;;;;;;;;;;3.60;88.40;;;1.84;100.00;95581.00;4950276;28;19941;-64
2022/02/02 00:43:55;;;;;;;;;;;3.60;88.30;;;1.86;100.00;95547.16;4950465;28;19926;-63
2022/02/02 00:46:24;;;;;;;;;;;3.60;88.30;;;1.88;99.84;95555.59;4928213;28;19919;-64
2022/02/02 00:48:57;;;;;;;;;;;3.70;88.40;;;1.90;100.00;95543.28;4947402;28;19941;-64
2022/02/02 00:51:24;;;;;;;;;;;3.60;88.40;;;1.93;100.00;95548.19;4949789;28;20000;-64
2022/02/02 00:53:50;;;;;;;;;;;3.70;88.40;;;1.94;100.00;95557.59;4945736;28;19919;-65
2022/02/02 00:56:16;;;;;;;;;;;3.70;88.40;;;1.97;100.00;95554.69;4949742;28;19924;-64
2022/02/02 00:58:41;;;;;;;;;;;3.70;88.40;;;1.98;100.00;95554.53;4949999;28;19928;-64
2022/02/02 01:01:07;;;;;;;;;;;3.70;88.30;;;2.00;99.66;95539.63;4948720;28;19990;-64
2022/02/02 01:03:33;;;;;;;;;;;3.70;88.30;;;2.02;100.00;95542.91;4948116;28;20306;-64
2022/02/02 01:06:01;;;;;;;;;;;3.70;88.10;;;2.02;100.00;95536.91;4963512;28;20005;-64
2022/02/02 01:08:46;;;;;;;;;;;3.70;88.10;;;2.01;99.80;95535.25;4949460;28;19965;-64
2022/02/02 01:11:31;;;;;;;;;;;3.70;88.00;;;2.01;99.77;95524.88;4949855;28;19985;-64
2022/02/02 01:17:15;;;;;;;;;;;3.70;88.00;;;2.01;99.61;95532.66;4950395;28;19924;-64
2022/02/02 01:22:14;;;;;;;;;;;3.70;87.60;;;2.00;99.00;95554.38;4969015;23;20016;-64
2022/02/02 01:30:08;;;;;;;;;;;3.60;87.80;;;1.99;99.96;95547.56;4929942;28;19927;-64
2022/02/02 01:32:33;;;;;;;;;;;3.60;88.00;;;2.01;100.00;95556.84;4898360;29;19927;-64
2022/02/02 01:34:59;;;;;;;;;;;3.70;87.80;;;2.02;99.25;95562.84;4931223;28;19922;-64
2022/02/02 01:37:26;;;;;;;;;;;3.70;87.90;;;2.05;99.58;95559.97;4906487;29;19919;-65
2022/02/02 01:39:59;;;;;;;;;;;3.70;88.00;;;2.06;98.91;95533.06;4896802;29;19929;-64
2022/02/02 01:42:30;;;;;;;;;;;3.80;87.90;;;2.07;99.39;95519.94;4939873;28;19981;-65
2022/02/02 01:45:05;;;;;;;;;;;3.80;87.70;;;2.11;99.52;95520.44;4924196;29;21168;-64
2022/02/02 01:47:40;;;;;;;;;;;3.80;87.60;;;2.12;99.71;95519.47;4930986;28;19965;-64
2022/02/02 01:50:34;;;;;;;;;;;3.90;87.50;;;2.12;99.74;95501.31;4914763;28;19925;-65
2022/02/02 01:53:08;;;;;;;;;;;3.90;87.20;;;2.12;99.34;95512.50;4913714;29;20299;-65
2022/02/02 01:55:40;;;;;;;;;;;3.90;87.40;;;2.13;99.51;95508.13;4931379;28;20430;-64
2022/02/02 01:58:21;;;;;;;;;;;3.80;87.40;;;2.12;99.56;95503.91;4936446;28;19925;-65
2022/02/02 02:00:46;;;;;;;;;;;3.80;87.40;;;2.10;98.66;95498.88;4933081;28;19958;-65
2022/02/02 02:03:12;;;;;;;;;;;3.80;87.50;;;2.09;98.31;95512.00;4903878;29;19923;-65
2022/02/02 02:05:38;;;;;;;;;;;3.70;87.40;;;2.08;99.08;95516.38;4934324;28;19923;-65
2022/02/02 02:08:03;;;;;;;;;;;3.80;87.30;;;2.06;99.01;95510.53;4934999;28;19922;-64
2022/02/02 02:10:29;;;;;;;;;;;3.70;87.20;;;2.04;99.11;95511.66;4934500;28;19929;-64
2022/02/02 02:13:01;;;;;;;;;;;3.70;87.40;;;2.03;99.01;95502.22;4934288;28;20291;-65
2022/02/02 02:15:30;;;;;;;;;;;3.70;87.50;;;2.01;99.05;95507.53;4935289;28;20014;-64
2022/02/02 02:17:57;;;;;;;;;;;3.70;87.80;;;2.01;99.80;95504.13;4932657;28;20570;-65
2022/02/02 02:20:22;;;;;;;;;;;3.70;88.00;;;2.00;99.74;95503.31;4946749;28;19925;-65
2022/02/02 02:22:48;;;;;;;;;;;3.60;88.20;;;1.98;99.51;95484.50;4930133;29;19918;-65
2022/02/02 02:25:25;;;;;;;;;;;3.60;88.30;;;1.96;100.00;95483.03;4944279;28;19938;-65
2022/02/02 02:27:51;;;;;;;;;;;3.60;88.30;;;1.95;100.00;95496.97;4917506;29;19973;-65
2022/02/02 02:30:41;;;;;;;;;;;3.60;88.30;;;1.93;100.00;95493.72;4899488;28;19923;-65
2022/02/02 02:57:06;;;;;;;;;;;3.70;88.80;;;2.04;100.00;95503.88;4918907;29;20549;-64
2022/02/02 02:59:34;;;;;;;;;;;3.80;88.60;;;2.06;100.00;95512.31;4944876;28;19923;-64
2022/02/02 03:35:26;;;;;;;;;;;4.20;87.90;;;2.49;100.00;95533.97;4928612;28;19934;-64
2022/02/02 03:51:44;;;;;;;;;;;4.40;87.40;;;2.58;100.00;95525.28;4931125;29;19946;-65
2022/02/02 03:56:41;;;;;;;;;;;4.30;87.40;;;2.60;99.58;95534.56;4928006;29;19919;-65
2022/02/02 04:01:55;;;;;;;;;;;4.30;87.70;;;2.64;99.76;95558.41;4908085;29;19919;-71
2022/02/02 04:09:21;;;;;;;;;;;4.40;87.30;;;2.66;99.73;95535.72;4914937;29;19927;-68
2022/02/02 04:12:00;;;;;;;;;;;4.40;87.20;;;2.68;99.54;95541.56;4946152;28;19969;-65
2022/02/02 04:51:19;;;;;;;;;;;4.50;86.50;;;2.79;99.62;95536.13;4944869;28;19966;-65
2022/02/02 04:58:25;;;;;;;;;;;4.60;86.80;;;2.87;98.74;95543.94;4931880;28;19918;-65
2022/02/02 05:06:57;;;;;;;;;;;4.60;86.40;;;2.90;97.64;95538.44;4920979;29;19933;-65
2022/02/02 05:15:33;;;;;;;;;;;4.60;86.20;;;2.91;97.90;95566.03;4928522;28;19919;-66
2022/02/02 05:23:02;;;;;;;;;;;4.60;86.00;;;2.97;97.32;95591.41;4946337;28;19953;-66
2022/02/02 05:44:33;;;;;;;;;;;4.80;85.20;;;3.13;96.66;95595.03;4960834;28;19967;-70
2022/02/02 05:52:44;;;;;;;;;;;4.90;84.70;;;3.20;96.30;95596.88;4965220;28;19969;-68
2022/02/02 05:55:10;;;;;;;;;;;4.90;84.40;;;3.22;95.89;95591.53;4950214;28;19938;-68
2022/02/02 05:57:38;;;;;;;;;;;4.90;84.60;;;3.23;95.95;95591.38;4933408;28;20401;-68
2022/02/02 06:00:04;;;;;;;;;;;5.00;84.50;;;3.24;96.29;95615.56;4914131;28;19919;-66
2022/02/02 06:02:36;;;;;;;;;;;4.90;85.00;;;3.25;96.77;95615.41;4921553;29;19990;-67
2022/02/02 06:05:04;;;;;;;;;;;5.00;85.30;;;3.25;96.91;95612.81;4927033;28;19927;-67
2022/02/02 06:07:33;;;;;;;;;;;5.00;85.30;;;3.25;97.16;95635.41;4948499;28;19930;-68
2022/02/02 06:09:58;;;;;;;;;;;5.00;85.50;;;3.24;97.63;95644.97;4916981;29;19958;-68
2022/02/02 06:12:24;;;;;;;;;;;4.90;86.30;;;3.23;98.24;95674.53;4948971;28;19929;-69
2022/02/02 06:14:50;;;;;;;;;;;5.00;86.60;;;3.24;99.00;95696.16;4933103;29;20386;-68
2022/02/02 06:17:16;;;;;;;;;;;4.90;86.90;;;3.22;99.33;95703.28;4953236;28;19965;-67
2022/02/02 06:19:42;;;;;;;;;;;4.90;87.30;;;3.17;99.44;95682.97;4937014;29;19926;-67
2022/02/02 06:22:09;;;;;;;;;;;4.90;87.20;;;3.15;99.10;95671.88;4949737;28;19918;-64
2022/02/02 06:24:35;;;;;;;;;;;4.80;87.40;;;3.10;98.88;95665.50;4948649;28;19929;-64
2022/02/02 06:27:06;;;;;;;;;;;4.80;87.20;;;3.06;98.74;95667.59;4965326;28;19923;-67
2022/02/02 06:29:33;;;;;;;;;;;4.70;86.90;;;3.03;98.81;95663.53;4933060;28;19922;-67
2022/02/02 06:31:59;;;;;;;;;;;4.70;86.90;;;3.01;98.66;95665.47;4948482;28;19918;-63
2022/02/02 06:34:24;;;;;;;;;;;4.70;86.80;;;2.99;98.76;95683.00;4964099;28;20038;-66
2022/02/02 06:36:51;;;;;;;;;;;4.70;86.90;;;2.97;98.69;95677.13;4965326;28;19919;-64
2022/02/02 06:39:16;;;;;;;;;;;4.70;86.50;;;2.95;97.55;95665.28;4932142;28;19919;-67
2022/02/02 06:41:42;;;;;;;;;;;4.60;86.00;;;2.92;97.05;95668.16;4931661;29;19925;-66
2022/02/02 06:44:08;;;;;;;;;;;4.60;85.30;;;2.89;95.95;95663.25;4935822;28;20386;-65
2022/02/02 06:46:37;;;;;;;;;;;4.50;84.90;;;2.89;95.63;95661.47;4950891;28;20386;-66
2022/02/02 06:49:02;;;;;;;;;;;4.50;84.80;;;2.86;94.93;95661.78;4932296;29;19927;-66
2022/02/02 06:51:41;;;;;;;;;;;4.50;84.30;;;2.86;94.90;95672.19;4919235;28;20547;-67
2022/02/02 06:54:19;;;;;;;;;;;4.50;84.30;;;2.83;95.13;95693.25;4932142;28;20009;-67
2022/02/02 06:57:11;;;;;;;;;;;4.50;84.40;;;2.83;94.77;95711.44;4938592;29;19918;-68
2022/02/02 07:13:51;;;;;;;;;;;4.50;83.60;;;2.85;94.64;95691.31;4917079;29;20635;-66
2022/02/02 07:19:16;;;;;;;;;;;4.60;83.70;;;2.89;94.22;95692.66;4923249;29;19922;-67
2022/02/02 07:22:08;;;;;;;;;;;4.60;83.60;;;2.91;94.73;95690.72;4931576;29;19918;-63
2022/02/02 07:25:09;;;;;;;;;;;4.60;83.80;;;2.92;94.90;95687.16;4918732;28;19933;-67
2022/02/02 07:27:44;;;;;;;;;;;4.70;84.10;;;2.94;95.65;95700.84;4939111;28;20441;-67
2022/02/02 07:32:45;;;;;;;;;;;4.60;84.80;;;2.96;95.82;95703.28;4931765;29;19918;-67
2022/02/02 07:35:40;;;;;;;;;;;4.70;84.80;;;2.97;96.17;95716.13;4918718;29;19974;-64
2022/02/02 07:38:10;;;;;;;;;;;4.70;84.90;;;2.97;96.94;95716.13;4944836;28;20338;-68
2022/02/02 07:40:37;;;;;;;;;;;4.60;86.10;;;2.97;97.32;95716.13;4942632;28;19926;-68
2022/02/02 07:43:04;;;;;;;;;;;4.60;86.30;;;2.98;98.26;95712.53;4947080;28;19926;-69
2022/02/02 07:45:30;;;;;;;;;;;4.60;86.60;;;3.02;97.88;95723.44;4961837;28;20018;-64
2022/02/02 07:48:01;;;;;;;;;;;4.70;86.40;;;3.02;97.54;95719.06;4963468;28;20395;-68
2022/02/02 07:50:32;;;;;;;;;;;4.70;85.90;;;3.05;98.04;95703.16;4951557;28;19923;-68
2022/02/02 07:53:03;;;;;;;;;;;4.80;85.90;;;3.07;97.95;95714.22;4959667;28;20070;-64
2022/02/02 07:55:29;;;;;;;;;;;4.80;85.80;;;3.10;97.28;95720.06;4932218;28;19929;-64
2022/02/02 07:57:57;;;;;;;;;;;4.80;85.40;;;3.12;97.42;95734.53;4947805;28;19930;-69
2022/02/02 08:00:24;;;;;;;;;;;4.90;85.70;;;3.15;97.54;95744.63;4899441;28;20534;-69
2022/02/02 08:03:10;;;;;;;;;;;4.90;85.60;;;3.17;97.32;95731.47;4905252;29;19922;-68
2022/02/02 08:05:40;;;;;;;;;;;4.90;85.50;;;3.21;96.78;95738.03;4915177;29;19950;-68
2022/02/02 08:10:40;;;;;;;;;;;5.00;85.30;;;3.27;97.11;95742.63;4928052;28;19919;-67
2022/02/02 08:13:22;;;;;;;;;;;5.10;85.10;;;3.32;96.90;95751.56;4944338;28;20544;-68
2022/02/02 08:15:59;;;;;;;;;;;5.10;85.00;;;3.37;96.35;95754.53;4926455;29;19922;-69
2022/02/02 08:18:24;;;;;;;;;;;5.10;84.60;;;3.43;96.22;95762.72;4915637;28;19966;-69
2022/02/02 08:20:50;;;;;;;;;;;5.30;84.60;;;3.49;97.37;95781.09;4931266;29;20399;-67
2022/02/02 08:23:16;;;;;;;;;;;5.50;84.60;;;3.55;97.06;95785.69;4945943;28;19918;-68
2022/02/02 08:25:43;;;;;;;;;;;5.40;84.20;;;3.59;96.83;95781.81;4915313;29;19933;-69
2022/02/02 08:28:09;;;;;;;;;;;5.50;84.10;;;3.64;96.87;95803.00;4946165;28;20319;-68
2022/02/02 08:30:35;;;;;;;;;;;5.50;84.00;;;3.69;96.27;95795.53;4931287;29;19941;-68
2022/02/02 08:33:02;;;;;;;;;;;5.60;83.70;;;3.72;95.64;95806.59;4943796;28;20391;-67
2022/02/02 08:35:34;;;;;;;;;;;5.60;83.30;;;3.76;95.10;95806.13;4914352;29;19927;-68
2022/02/02 08:40:34;;;;;;;;;;;5.60;82.70;;;3.80;94.74;95807.44;4946385;28;19922;-68
2022/02/02 08:43:06;;;;;;;;;;;5.70;82.60;;;3.88;94.41;95815.31;4960521;28;19958;-69
2022/02/02 08:45:34;;;;;;;;;;;6.00;82.00;;;3.98;94.28;95817.78;4938678;28;19946;-67
2022/02/02 08:48:05;;;;;;;;;;;6.20;81.40;;;4.13;93.85;95818.03;4898911;29;19931;-65
2022/02/02 08:50:41;;;;;;;;;;;6.50;80.10;;;4.24;93.30;95821.16;4961381;28;19977;-68
2022/02/02 08:58:40;;;;;;;;;;;6.30;79.80;;;4.39;91.53;95812.78;4960071;28;20010;-69
2022/02/02 09:01:10;;;;;;;;;;;6.20;79.60;;;4.38;91.33;95813.75;4938075;28;20370;-69
2022/02/02 09:06:20;;;;;;;;;;;6.20;80.30;;;4.38;91.24;95817.16;4935373;28;20016;-72
2022/02/02 09:08:49;;;;;;;;;;;6.20;79.70;;;4.39;91.15;95823.19;4944604;28;19922;-67
2022/02/02 09:35:21;;;;;;;;;;;7.10;76.10;;;5.16;88.41;95848.09;4958287;28;19926;-66
2022/02/02 09:37:48;;;;;;;;;;;7.10;76.20;;;5.19;87.86;95845.16;4930927;28;19974;-64
2022/02/02 09:42:49;;;;;;;;;;;7.30;76.10;;;5.34;88.00;95845.34;4947307;28;20375;-67
2022/02/02 09:45:16;;;;;;;;;;;7.70;75.30;;;5.46;88.22;95849.28;4942440;28;19953;-71
2022/02/02 09:47:47;;;;;;;;;;;7.90;74.00;;;5.55;87.29;95853.50;4934515;28;19923;-70
2022/02/02 09:50:23;;;;;;;;;;;7.90;73.70;;;5.64;86.93;95872.56;4928915;28;19998;-71
2022/02/02 09:52:56;;;;;;;;;;;7.90;73.90;;;5.71;85.96;95863.13;4915566;29;20002;-64
2022/02/02 09:55:50;;;;;;;;;;;8.20;73.00;;;5.91;86.05;95877.50;4929333;29;19926;-67
2022/02/02 10:07:51;;;;;;;;;;;8.40;70.80;;;6.32;82.70;95882.59;4939457;28;20387;-64
2022/02/02 10:15:25;;;;;;;;;;;7.40;72.80;;;5.91;82.30;95880.09;4923610;29;19986;-66
2022/02/02 10:17:58;;;;;;;;;;;7.50;73.10;;;5.77;83.09;95881.53;4933203;28;19919;-71
2022/02/02 10:20:26;;;;;;;;;;;7.20;73.80;;;5.68;84.42;95884.34;4929010;28;20013;-66
2022/02/02 10:22:53;;;;;;;;;;;7.20;74.50;;;5.58;84.02;95883.66;4931086;28;19934;-69
2022/02/02 10:25:24;;;;;;;;;;;7.10;74.80;;;5.47;83.71;95874.38;4926424;29;19977;-69
2022/02/02 10:27:50;;;;;;;;;;;6.90;74.70;;;5.40;84.63;95876.00;4925871;29;19919;-70
2022/02/02 10:30:17;;;;;;;;;;;6.90;75.50;;;5.32;85.00;95879.41;4936254;28;20295;-70
2022/02/02 10:32:44;;;;;;;;;;;7.00;75.60;;;5.29;84.17;95878.94;4965030;28;19945;-70
2022/02/02 10:35:11;;;;;;;;;;;6.80;75.00;;;5.21;83.89;95871.94;4932694;29;19923;-68
2022/02/02 10:37:39;;;;;;;;;;;6.70;75.30;;;5.17;84.07;95886.25;4947927;28;19926;-70
2022/02/02 10:40:06;;;;;;;;;;;6.70;75.00;;;5.14;84.50;95903.03;4932117;28;19918;-67
2022/02/02 10:42:32;;;;;;;;;;;6.60;76.30;;;5.12;86.75;95901.56;4932843;29;19929;-65
2022/02/02 10:45:00;;;;;;;;;;;6.70;77.90;;;5.09;88.25;95910.50;4947354;28;20447;-65
2022/02/02 10:47:32;;;;;;;;;;;6.80;78.30;;;5.06;88.27;95915.22;4917037;29;19949;-66
2022/02/02 10:53:10;;;;;;;;;;;6.90;78.60;;;4.97;89.11;95916.16;4932243;28;19919;-67
2022/02/02 11:06:38;;;;;;;;;;;6.70;79.70;;;4.81;90.07;95917.75;4932612;28;19930;-69
2022/02/02 11:09:05;;;;;;;;;;;6.60;79.00;;;4.79;89.79;95922.31;4956153;28;19919;-70
2022/02/02 11:11:30;;;;;;;;;;;6.60;78.70;;;4.83;87.87;95926.25;4947692;28;19934;-71
2022/02/02 11:14:05;;;;;;;;;;;6.70;77.40;;;4.87;86.77;95927.56;4944736;28;20415;-73
2022/02/02 11:16:32;;;;;;;;;;;6.60;76.10;;;4.90;86.24;95935.06;4926912;29;19923;-68
2022/02/02 11:18:59;;;;;;;;;;;6.70;76.50;;;4.96;86.22;95925.78;4941834;28;20457;-67
2022/02/02 11:21:32;;;;;;;;;;;6.70;75.60;;;5.00;85.44;95934.13;4923114;29;20026;-67
2022/02/02 11:23:59;;;;;;;;;;;6.80;75.10;;;5.03;84.17;95925.97;4946924;28;19957;-67
2022/02/02 11:26:47;;;;;;;;;;;6.80;74.60;;;5.07;84.17;95932.50;4961993;28;19926;-65
2022/02/02 11:29:41;;;;;;;;;;;6.80;74.70;;;5.09;84.83;95928.75;4945260;28;20006;-66
2022/02/02 11:32:11;;;;;;;;;;;6.80;74.30;;;5.09;85.11;95930.56;4918281;29;20006;-66
2022/02/02 11:34:36;;;;;;;;;;;6.80;75.10;;;5.13;84.30;95926.66;4915315;29;19957;-70
2022/02/02 11:37:04;;;;;;;;;;;6.80;74.30;;;5.11;84.17;95928.59;4932523;28;20322;-72
2022/02/02 11:39:43;;;;;;;;;;;6.70;74.30;;;5.14;83.21;95928.28;4933535;29;19930;-71
2022/02/02 11:42:58;;;;;;;;;;;6.90;74.30;;;5.18;83.80;95934.78;4932053;28;19919;-70
2022/02/02 11:45:39;;;;;;;;;;;7.00;74.60;;;5.21;83.34;95924.06;4934691;28;20365;-71
2022/02/02 11:48:09;;;;;;;;;;;7.00;73.80;;;5.23;82.75;95933.38;4948173;28;19919;-75
2022/02/02 11:50:49;;;;;;;;;;;7.10;73.30;;;5.27;83.34;95923.44;4928793;29;20009;-70
2022/02/02 11:53:45;;;;;;;;;;;7.10;73.30;;;5.29;82.70;95918.88;4928946;29;19929;-70
2022/02/02 11:56:11;;;;;;;;;;;7.00;73.30;;;5.31;83.23;95929.94;4938056;28;19926;-71
2022/02/02 11:58:37;;;;;;;;;;;7.00;74.00;;;5.32;82.80;95921.16;4932794;28;19919;-71
2022/02/02 12:01:27;;;;;;;;;;;7.10;73.90;;;5.32;83.21;95926.38;4931244;29;20008;-71
2022/02/02 12:58:01;;;;;;;;;;;6.30;79.60;;;4.63;89.63;95987.38;4910016;29;20009;-68
2022/02/02 13:00:40;;;;;;;;;;;6.30;80.30;;;4.61;90.11;95981.50;4905524;28;19923;-70
2022/02/02 13:03:06;;;;;;;;;;;6.40;80.10;;;4.56;89.51;95983.75;4946186;28;20326;-67
2022/02/02 13:05:34;;;;;;;;;;;6.20;80.30;;;4.57;89.14;95977.59;4929021;28;19931;-68
2022/02/02 13:08:00;;;;;;;;;;;6.40;80.00;;;4.61;90.09;95990.13;4945322;28;19919;-69
2022/02/02 13:10:27;;;;;;;;;;;6.50;79.70;;;4.66;90.55;95987.06;4913609;28;20005;-68
2022/02/02 13:13:10;;;;;;;;;;;6.60;79.40;;;4.67;90.32;95996.50;4961907;28;20375;-72
2022/02/02 13:15:58;;;;;;;;;;;6.60;79.50;;;4.65;90.02;95995.03;4930359;28;19927;-65
2022/02/02 13:18:34;;;;;;;;;;;6.50;79.60;;;4.60;89.40;95988.50;4955644;28;19965;-69
2022/02/02 13:29:09;;;;;;;;;;;6.80;79.00;;;4.84;89.98;96026.91;4956349;28;20013;-66
2022/02/02 13:34:03;;;;;;;;;;;6.60;79.70;;;4.76;90.35;96039.91;4941803;28;19990;-65
2022/02/02 13:36:46;;;;;;;;;;;6.40;80.70;;;4.74;90.87;96028.78;4915453;29;19981;-64
2022/02/02 13:45:24;;;;;;;;;;;6.60;80.50;;;5.31;90.68;96052.53;4909786;29;19927;-69
2022/02/02 13:58:50;;;;;;;;;;;18.40;42.10;;;10.92;75.22;96053.94;4918416;28;20024;-66
2022/02/02 14:01:26;;;;;;;;;;;16.90;43.70;;;11.70;75.17;96045.81;4947894;28;19974;-69
2022/02/02 14:33:17;;;;;;;;;;;10.80;56.10;;;9.04;70.22;96124.94;4933475;28;19946;-72
2022/02/02 14:35:45;;;;;;;;;;;9.90;59.00;;;8.47;73.90;96157.69;4944928;28;19927;-71
2022/02/02 14:38:12;;;;;;;;;;;8.90;65.70;;;7.82;75.02;96165.06;4958702;28;20354;-69
2022/02/02 14:40:54;;;;;;;;;;;8.30;69.60;;;7.32;77.16;96168.81;4941391;28;20382;-68
2022/02/02 14:43:30;;;;;;;;;;;7.90;70.40;;;6.96;78.73;96170.97;4918264;29;19961;-69
2022/02/02 14:45:59;;;;;;;;;;;8.10;71.20;;;6.66;78.81;96175.06;4933947;28;19922;-69
2022/02/02 14:48:30;;;;;;;;;;;7.90;70.80;;;6.53;79.56;96172.91;4933190;28;19993;-69
2022/02/02 14:53:40;;;;;;;;;;;8.00;69.80;;;6.28;79.74;96166.03;4925709;29;19918;-69
2022/02/02 15:28:11;;;;;;;;;;;6.60;75.80;;;4.92;84.93;96253.69;4935289;28;20260;-69
2022/02/02 15:31:01;;;;;;;;;;;6.60;76.10;;;4.85;84.45;96251.84;4939656;28;20263;-69
2022/02/02 15:33:29;;;;;;;;;;;6.50;76.40;;;4.71;84.59;96239.31;4934140;28;19982;-68
2022/02/02 15:36:14;;;;;;;;;;;6.10;77.30;;;4.59;85.27;96238.75;4939561;28;20339;-69
2022/02/02 15:38:40;;;;;;;;;;;6.00;78.30;;;4.53;86.19;96247.16;4934306;28;19937;-68
2022/02/02 15:41:13;;;;;;;;;;;6.10;79.10;;;4.49;86.43;96243.19;4947368;28;19919;-70
2022/02/02 16:02:44;;;;;;;;;;;5.60;79.80;;;3.96;87.46;96280.34;4946025;28;19918;-70
2022/02/02 16:05:14;;;;;;;;;;;5.50;80.00;;;3.88;87.37;96277.66;4942102;28;20370;-70
2022/02/02 16:07:40;;;;;;;;;;;5.40;80.50;;;3.84;87.78;96284.06;4941843;28;19977;-69
2022/02/02 16:10:12;;;;;;;;;;;5.50;80.50;;;3.82;88.31;96286.00;4940718;28;20346;-69
2022/02/02 16:12:43;;;;;;;;;;;5.50;80.80;;;3.79;88.94;96291.50;4925876;29;19927;-69
2022/02/02 16:34:29;;;;;;;;;;;5.60;79.50;;;3.86;87.32;96284.78;4935203;28;19925;-70
2022/02/02 16:36:33;;;;;;;;;;;5.60;79.50;;;3.86;87.60;96287.38;4922437;29;19919;-70
2022/02/02 16:39:10;;;;;;;;;;;5.70;79.10;;;3.86;87.14;96279.56;4930657;28;20409;-70
2022/02/02 16:44:20;;;;;;;;;;;5.70;78.50;;;3.89;86.80;96279.28;4920261;28;19925;-67
2022/02/02 16:46:45;;;;;;;;;;;5.70;78.40;;;3.90;86.50;96286.13;4931252;28;20535;-71
2022/02/02 16:49:11;;;;;;;;;;;5.80;78.00;;;3.91;87.21;96295.56;4918777;28;19925;-71
2022/02/02 16:51:37;;;;;;;;;;;5.80;78.00;;;3.91;86.83;96292.97;4931854;28;19919;-70
2022/02/02 16:54:06;;;;;;;;;;;5.80;77.20;;;3.93;86.49;96317.06;4930475;28;19918;-70
2022/02/02 17:32:47;;;;;;;;;;;5.30;79.00;;;3.55;86.97;96346.59;4918015;29;20620;-66
2022/02/02 17:34:57;;;;;;;;;;;5.30;78.80;;;3.49;86.63;96344.56;4910837;29;19957;-67
2022/02/02 17:40:20;;;;;;;;;;;5.30;78.90;;;3.42;87.19;96357.31;4931273;28;20014;-66
2022/02/02 18:12:48;;;;;;;;;;;5.50;79.30;;;3.46;88.61;96444.47;4926089;28;19946;-69
2022/02/02 18:20:48;;;;;;;;;;;5.40;80.40;;;3.48;89.62;96468.56;4955657;28;19946;-67
2022/02/02 18:23:44;;;;;;;;;;;5.50;80.00;;;3.47;88.99;96466.91;4945219;28;19918;-67
2022/02/02 18:28:55;;;;;;;;;;;5.20;81.30;;;3.41;90.99;96475.28;4930995;28;19918;-67
2022/02/02 18:36:29;;;;;;;;;;;5.30;81.90;;;3.41;90.69;96477.88;4942536;28;19967;-66
2022/02/02 18:50:18;;;;;;;;;;;5.10;82.30;;;3.35;91.98;96473.19;4937227;28;19918;-69
2022/02/02 18:52:42;;;;;;;;;;;5.20;82.50;;;3.32;91.65;96478.66;4918492;28;20339;-65
2022/02/02 18:55:17;;;;;;;;;;;5.10;82.20;;;3.27;91.05;96476.47;4946021;28;20305;-70
2022/02/02 19:06:54;;;;;;;;;;;4.90;82.50;;;3.06;91.87;96497.34;4930133;29;19931;-66
2022/02/02 19:55:24;;;;;;;;;;;4.70;84.60;;;2.96;94.44;96532.06;4962259;28;19925;-69
2022/02/02 20:11:47;;;;;;;;;;;4.60;84.10;;;2.82;93.43;96530.66;4928170;28;19919;-70
2022/02/02 20:14:13;;;;;;;;;;;4.50;84.40;;;2.78;93.52;96537.06;4931966;28;19918;-70
2022/02/02 20:16:39;;;;;;;;;;;4.50;84.70;;;2.75;93.55;96538.13;4962860;28;19938;-71
2022/02/02 20:19:07;;;;;;;;;;;4.50;84.70;;;2.72;93.61;96542.78;4915204;29;20251;-69
2022/02/02 20:21:36;;;;;;;;;;;4.50;84.60;;;2.71;93.63;96546.28;4945184;28;19954;-69
2022/02/02 20:24:05;;;;;;;;;;;4.50;84.90;;;2.69;94.22;96549.03;4918511;29;20291;-69
2022/02/02 20:26:32;;;;;;;;;;;4.50;84.60;;;2.68;93.91;96549.16;4963678;28;19927;-69
2022/02/02 20:29:02;;;;;;;;;;;4.50;84.70;;;2.67;94.18;96557.91;4927849;28;20491;-71
2022/02/02 20:31:29;;;;;;;;;;;4.50;84.90;;;2.65;94.25;96558.03;4929644;28;19962;-72
2022/02/02 20:33:56;;;;;;;;;;;4.50;85.00;;;2.65;94.38;96560.63;4946809;28;19919;-71
2022/02/02 20:36:22;;;;;;;;;;;4.50;84.90;;;2.65;95.04;96557.22;4946050;28;19919;-69
2022/02/02 20:38:47;;;;;;;;;;;4.40;84.90;;;2.62;94.72;96565.25;4914133;29;19947;-69
2022/02/02 20:41:13;;;;;;;;;;;4.40;85.10;;;2.64;94.76;96571.16;4947009;28;19924;-70
2022/02/02 21:10:35;;;;;;;;;;;4.40;84.80;;;2.57;94.43;96596.00;4929115;28;19918;-67
2022/02/02 21:15:47;;;;;;;;;;;4.30;85.30;;;2.56;95.08;96599.53;4957633;28;19930;-70
2022/02/02 21:18:16;;;;;;;;;;;4.30;85.50;;;2.54;95.19;96601.44;4961610;28;20367;-71
2022/02/02 21:20:50;;;;;;;;;;;4.30;85.50;;;2.54;95.46;96609.25;4966766;28;19969;-70
2022/02/02 21:26:11;;;;;;;;;;;4.30;85.80;;;2.52;95.52;96613.75;4930175;28;19946;-72
2022/02/02 21:28:35;;;;;;;;;;;4.30;85.80;;;2.50;95.29;96616.47;4931422;28;19925;-71
2022/02/02 21:31:00;;;;;;;;;;;4.20;85.90;;;2.49;96.33;96613.97;4914399;29;19918;-78
2022/02/02 21:33:27;;;;;;;;;;;4.20;86.00;;;2.47;95.79;96607.13;4946030;28;19919;-71
2022/02/02 21:35:54;;;;;;;;;;;4.20;85.90;;;2.46;96.05;96613.25;4920221;28;19926;-72
2022/02/02 21:38:29;;;;;;;;;;;4.20;86.00;;;2.46;95.57;96615.88;4908441;28;20012;-72
2022/02/02 21:40:57;;;;;;;;;;;4.30;86.10;;;2.43;95.97;96623.91;4916104;29;19926;-72
2022/02/02 21:43:23;;;;;;;;;;;4.20;86.20;;;2.43;96.15;96630.88;4934464;28;19925;-70
2022/02/02 21:45:49;;;;;;;;;;;4.30;86.00;;;2.42;96.46;96629.22;4929685;28;20009;-69
2022/02/02 21:48:15;;;;;;;;;;;4.20;86.20;;;2.41;96.00;96632.78;4961621;28;20472;-74
2022/02/02 21:50:46;;;;;;;;;;;4.20;86.20;;;2.40;96.17;96621.56;4934755;28;19926;-72
2022/02/02 21:53:12;;;;;;;;;;;4.20;86.20;;;2.40;96.03;96618.97;4939540;29;19922;-72
2022/02/02 21:55:37;;;;;;;;;;;4.20;85.90;;;2.40;95.79;96618.97;4930172;29;19941;-74
2022/02/02 21:58:03;;;;;;;;;;;4.20;86.00;;;2.39;95.99;96619.91;4930428;29;20586;-69
2022/02/02 22:00:29;;;;;;;;;;;4.20;86.10;;;2.39;96.51;96622.53;4902032;29;19918;-74
2022/02/02 22:02:55;;;;;;;;;;;4.20;86.20;;;2.37;96.37;96616.63;4928399;29;20314;-66
2022/02/02 22:05:20;;;;;;;;;;;4.20;86.20;;;2.37;96.83;96621.81;4927462;29;19927;-65
2022/02/02 22:07:46;;;;;;;;;;;4.20;86.30;;;2.38;96.38;96622.66;4928760;28;19919;-67
2022/02/02 22:10:12;;;;;;;;;;;4.20;86.20;;;2.38;96.43;96623.47;4927112;28;19937;-65
2022/02/02 22:12:39;;;;;;;;;;;4.20;86.10;;;2.37;96.78;96618.41;4912099;29;19929;-66
2022/02/02 22:15:11;;;;;;;;;;;4.20;86.20;;;2.37;96.60;96621.81;4945811;28;19927;-65
2022/02/02 22:17:36;;;;;;;;;;;4.20;86.40;;;2.37;96.95;96629.59;4944413;28;20005;-65
2022/02/02 22:20:06;;;;;;;;;;;4.20;86.40;;;2.36;97.16;96630.56;4922782;28;19945;-67
2022/02/02 22:22:32;;;;;;;;;;;4.20;86.40;;;2.38;96.83;96622.66;4930361;28;19927;-67
2022/02/02 22:24:58;;;;;;;;;;;4.30;86.30;;;2.39;97.00;96632.09;4936133;29;19926;-66
2022/02/02 22:27:24;;;;;;;;;;;4.30;86.30;;;2.39;96.81;96635.50;4931420;29;19987;-67
2022/02/02 22:29:50;;;;;;;;;;;4.30;86.20;;;2.39;97.07;96630.31;4947080;28;19941;-66
2022/02/02 22:32:15;;;;;;;;;;;4.30;86.10;;;2.38;96.63;96633.84;4946588;28;19921;-67
2022/02/02 22:34:41;;;;;;;;;;;4.30;86.00;;;2.37;96.61;96641.78;4946613;28;20414;-66
2022/02/02 22:37:07;;;;;;;;;;;4.20;86.10;;;2.36;96.50;96646.13;4932123;28;19922;-67
2022/02/02 22:39:39;;;;;;;;;;;4.30;86.10;;;2.34;96.65;96644.63;4947168;28;19922;-67